sensor_id;sensor_type;location;lat;lon;timestamp;P1;durP1;ratioP1;P2;durP2;ratioP2
22034;SDS011;11181;51.002;4.356;2022-09-09T00:00:17;3.07;;;1.13;;
22034;SDS011;11181;51.002;4.356;2022-09-09T00:02:47;3.97;;;1.33;;
22034;SDS011;11181;51.002;4.356;2022-09-09T00:05:23;2.20;;;1.03;;
22034;SDS011;11181;51.002;4.356;2022-09-09T00:07:58;3.47;;;1.17;;
22034;SDS011;11181;51.002;4.356;2022-09-09T00:10:29;2.60;;;1.40;;
22034;SDS011;11181;51.002;4.356;2022-09-09T00:13:00;3.13;;;1.40;;
22034;SDS011;11181;51.002;4.356;2022-09-09T00:15:35;3.03;;;1.73;;
22034;SDS011;11181;51.002;4.356;2022-09-09T00:18:10;4.40;;;1.47;;
22034;SDS011;11181;51.002;4.356;2022-09-09T00:20:44;2.60;;;1.20;;
22034;SDS011;11181;51.002;4.356;2022-09-09T00:23:19;3.87;;;1.40;;
22034;SDS011;11181;51.002;4.356;2022-09-09T00:25:54;4.80;;;1.17;;
22034;SDS011;11181;51.002;4.356;2022-09-09T00:28:28;3.33;;;1.30;;
22034;SDS011;11181;51.002;4.356;2022-09-09T00:30:59;6.60;;;1.43;;
22034;SDS011;11181;51.002;4.356;2022-09-09T00:33:34;3.30;;;1.40;;
22034;SDS011;11181;51.002;4.356;2022-09-09T00:36:02;2.37;;;1.10;;
22034;SDS011;11181;51.002;4.356;2022-09-09T00:38:33;4.53;;;1.70;;
22034;SDS011;11181;51.002;4.356;2022-09-09T00:41:06;3.37;;;1.73;;
22034;SDS011;11181;51.002;4.356;2022-09-09T00:43:38;4.27;;;1.33;;
22034;SDS011;11181;51.002;4.356;2022-09-09T00:49:12;6.03;;;1.57;;
22034;SDS011;11181;51.002;4.356;2022-09-09T00:51:48;3.67;;;1.43;;
22034;SDS011;11181;51.002;4.356;2022-09-09T00:54:28;2.20;;;1.60;;
22034;SDS011;11181;51.002;4.356;2022-09-09T00:57:07;5.20;;;1.40;;
22034;SDS011;11181;51.002;4.356;2022-09-09T00:59:46;5.47;;;1.63;;
22034;SDS011;11181;51.002;4.356;2022-09-09T01:02:19;4.20;;;1.63;;
22034;SDS011;11181;51.002;4.356;2022-09-09T01:04:53;4.93;;;1.73;;
22034;SDS011;11181;51.002;4.356;2022-09-09T01:07:20;4.47;;;1.73;;
22034;SDS011;11181;51.002;4.356;2022-09-09T01:09:54;3.83;;;1.50;;
22034;SDS011;11181;51.002;4.356;2022-09-09T01:12:29;3.07;;;1.30;;
22034;SDS011;11181;51.002;4.356;2022-09-09T01:15:08;5.17;;;1.87;;
22034;SDS011;11181;51.002;4.356;2022-09-09T01:17:40;2.57;;;1.83;;
22034;SDS011;11181;51.002;4.356;2022-09-09T01:20:15;3.40;;;2.00;;
22034;SDS011;11181;51.002;4.356;2022-09-09T01:22:50;2.93;;;1.40;;
22034;SDS011;11181;51.002;4.356;2022-09-09T01:28:35;4.33;;;1.90;;
22034;SDS011;11181;51.002;4.356;2022-09-09T01:31:04;5.13;;;1.73;;
22034;SDS011;11181;51.002;4.356;2022-09-09T01:33:34;3.97;;;1.50;;
22034;SDS011;11181;51.002;4.356;2022-09-09T01:36:02;2.43;;;1.50;;
22034;SDS011;11181;51.002;4.356;2022-09-09T01:38:34;6.27;;;2.17;;
22034;SDS011;11181;51.002;4.356;2022-09-09T01:41:03;6.70;;;1.60;;
22034;SDS011;11181;51.002;4.356;2022-09-09T01:43:31;2.63;;;1.30;;
22034;SDS011;11181;51.002;4.356;2022-09-09T01:45:59;6.07;;;1.50;;
22034;SDS011;11181;51.002;4.356;2022-09-09T01:48:27;5.20;;;1.77;;
22034;SDS011;11181;51.002;4.356;2022-09-09T01:50:55;9.33;;;1.77;;
22034;SDS011;11181;51.002;4.356;2022-09-09T01:53:22;5.07;;;1.47;;
22034;SDS011;11181;51.002;4.356;2022-09-09T01:55:52;5.03;;;1.20;;
22034;SDS011;11181;51.002;4.356;2022-09-09T01:58:31;2.10;;;0.93;;
22034;SDS011;11181;51.002;4.356;2022-09-09T02:01:02;2.37;;;1.10;;
22034;SDS011;11181;51.002;4.356;2022-09-09T02:03:36;7.23;;;1.60;;
22034;SDS011;11181;51.002;4.356;2022-09-09T02:06:05;4.07;;;1.90;;
22034;SDS011;11181;51.002;4.356;2022-09-09T02:08:42;2.97;;;1.40;;
22034;SDS011;11181;51.002;4.356;2022-09-09T02:11:13;3.80;;;1.23;;
22034;SDS011;11181;51.002;4.356;2022-09-09T02:13:42;5.67;;;1.20;;
22034;SDS011;11181;51.002;4.356;2022-09-09T02:16:12;3.47;;;1.37;;
22034;SDS011;11181;51.002;4.356;2022-09-09T02:18:45;9.23;;;1.87;;
22034;SDS011;11181;51.002;4.356;2022-09-09T02:21:16;2.60;;;1.30;;
22034;SDS011;11181;51.002;4.356;2022-09-09T02:23:44;7.03;;;1.67;;
22034;SDS011;11181;51.002;4.356;2022-09-09T02:26:14;4.90;;;1.90;;
22034;SDS011;11181;51.002;4.356;2022-09-09T02:28:46;3.93;;;1.50;;
22034;SDS011;11181;51.002;4.356;2022-09-09T02:31:17;2.87;;;1.10;;
22034;SDS011;11181;51.002;4.356;2022-09-09T02:33:47;9.67;;;2.17;;
22034;SDS011;11181;51.002;4.356;2022-09-09T02:36:19;1.90;;;1.07;;
22034;SDS011;11181;51.002;4.356;2022-09-09T02:38:49;6.50;;;1.83;;
22034;SDS011;11181;51.002;4.356;2022-09-09T02:41:19;4.63;;;1.30;;
22034;SDS011;11181;51.002;4.356;2022-09-09T02:43:50;4.00;;;1.30;;
22034;SDS011;11181;51.002;4.356;2022-09-09T02:46:27;5.07;;;1.50;;
22034;SDS011;11181;51.002;4.356;2022-09-09T02:49:03;8.00;;;2.07;;
22034;SDS011;11181;51.002;4.356;2022-09-09T02:51:35;6.87;;;1.77;;
22034;SDS011;11181;51.002;4.356;2022-09-09T02:54:13;8.57;;;1.97;;
22034;SDS011;11181;51.002;4.356;2022-09-09T02:56:47;5.07;;;2.20;;
22034;SDS011;11181;51.002;4.356;2022-09-09T02:59:20;9.47;;;2.40;;
22034;SDS011;11181;51.002;4.356;2022-09-09T03:01:49;5.47;;;1.50;;
22034;SDS011;11181;51.002;4.356;2022-09-09T03:04:16;4.10;;;1.37;;
22034;SDS011;11181;51.002;4.356;2022-09-09T03:06:43;4.20;;;1.57;;
22034;SDS011;11181;51.002;4.356;2022-09-09T03:09:09;3.97;;;1.73;;
22034;SDS011;11181;51.002;4.356;2022-09-09T03:11:36;2.43;;;1.50;;
22034;SDS011;11181;51.002;4.356;2022-09-09T03:14:04;4.10;;;1.90;;
22034;SDS011;11181;51.002;4.356;2022-09-09T03:16:32;6.87;;;1.77;;
22034;SDS011;11181;51.002;4.356;2022-09-09T03:18:59;6.03;;;1.77;;
22034;SDS011;11181;51.002;4.356;2022-09-09T03:21:26;8.97;;;1.63;;
22034;SDS011;11181;51.002;4.356;2022-09-09T03:23:53;3.37;;;1.57;;
22034;SDS011;11181;51.002;4.356;2022-09-09T03:26:20;7.80;;;2.23;;
22034;SDS011;11181;51.002;4.356;2022-09-09T03:28:48;2.03;;;1.37;;
22034;SDS011;11181;51.002;4.356;2022-09-09T03:31:14;7.87;;;1.60;;
22034;SDS011;11181;51.002;4.356;2022-09-09T03:33:43;6.67;;;1.63;;
22034;SDS011;11181;51.002;4.356;2022-09-09T03:36:10;9.80;;;2.27;;
22034;SDS011;11181;51.002;4.356;2022-09-09T03:38:37;6.47;;;1.60;;
22034;SDS011;11181;51.002;4.356;2022-09-09T03:41:04;6.70;;;1.93;;
22034;SDS011;11181;51.002;4.356;2022-09-09T03:43:32;3.40;;;1.43;;
22034;SDS011;11181;51.002;4.356;2022-09-09T03:46:00;4.73;;;1.70;;
22034;SDS011;11181;51.002;4.356;2022-09-09T03:48:27;7.97;;;2.83;;
22034;SDS011;11181;51.002;4.356;2022-09-09T03:50:56;5.63;;;1.87;;
22034;SDS011;11181;51.002;4.356;2022-09-09T03:53:26;7.87;;;2.80;;
22034;SDS011;11181;51.002;4.356;2022-09-09T03:55:54;3.40;;;1.47;;
22034;SDS011;11181;51.002;4.356;2022-09-09T03:58:23;4.53;;;1.90;;
22034;SDS011;11181;51.002;4.356;2022-09-09T04:00:55;9.30;;;2.37;;
22034;SDS011;11181;51.002;4.356;2022-09-09T04:03:24;6.67;;;1.97;;
22034;SDS011;11181;51.002;4.356;2022-09-09T04:05:51;8.60;;;1.43;;
22034;SDS011;11181;51.002;4.356;2022-09-09T04:08:20;8.10;;;2.07;;
22034;SDS011;11181;51.002;4.356;2022-09-09T04:10:47;8.17;;;2.00;;
22034;SDS011;11181;51.002;4.356;2022-09-09T04:13:15;4.60;;;1.90;;
22034;SDS011;11181;51.002;4.356;2022-09-09T04:15:43;4.57;;;1.60;;
22034;SDS011;11181;51.002;4.356;2022-09-09T04:18:10;9.50;;;2.40;;
22034;SDS011;11181;51.002;4.356;2022-09-09T04:20:37;8.73;;;1.93;;
22034;SDS011;11181;51.002;4.356;2022-09-09T04:23:05;9.00;;;2.00;;
22034;SDS011;11181;51.002;4.356;2022-09-09T04:25:33;9.03;;;1.70;;
22034;SDS011;11181;51.002;4.356;2022-09-09T04:28:00;11.37;;;1.77;;
22034;SDS011;11181;51.002;4.356;2022-09-09T04:30:27;6.87;;;2.00;;
22034;SDS011;11181;51.002;4.356;2022-09-09T04:32:54;9.20;;;2.00;;
22034;SDS011;11181;51.002;4.356;2022-09-09T04:35:22;8.90;;;1.70;;
22034;SDS011;11181;51.002;4.356;2022-09-09T04:37:49;5.57;;;2.13;;
22034;SDS011;11181;51.002;4.356;2022-09-09T04:40:16;7.67;;;1.40;;
22034;SDS011;11181;51.002;4.356;2022-09-09T04:42:44;4.07;;;1.60;;
22034;SDS011;11181;51.002;4.356;2022-09-09T04:45:14;7.57;;;2.03;;
22034;SDS011;11181;51.002;4.356;2022-09-09T04:47:41;6.80;;;2.47;;
22034;SDS011;11181;51.002;4.356;2022-09-09T04:50:08;7.37;;;1.50;;
22034;SDS011;11181;51.002;4.356;2022-09-09T04:52:35;12.17;;;2.27;;
22034;SDS011;11181;51.002;4.356;2022-09-09T04:55:02;11.17;;;2.00;;
22034;SDS011;11181;51.002;4.356;2022-09-09T04:57:30;10.77;;;2.10;;
22034;SDS011;11181;51.002;4.356;2022-09-09T04:59:59;7.87;;;2.20;;
22034;SDS011;11181;51.002;4.356;2022-09-09T05:02:26;6.33;;;1.73;;
22034;SDS011;11181;51.002;4.356;2022-09-09T05:04:54;5.90;;;2.33;;
22034;SDS011;11181;51.002;4.356;2022-09-09T05:07:21;6.23;;;1.70;;
22034;SDS011;11181;51.002;4.356;2022-09-09T05:09:48;8.27;;;2.53;;
22034;SDS011;11181;51.002;4.356;2022-09-09T05:12:15;5.27;;;1.60;;
22034;SDS011;11181;51.002;4.356;2022-09-09T05:14:42;6.20;;;2.20;;
22034;SDS011;11181;51.002;4.356;2022-09-09T05:17:10;8.27;;;1.77;;
22034;SDS011;11181;51.002;4.356;2022-09-09T05:19:38;5.97;;;2.00;;
22034;SDS011;11181;51.002;4.356;2022-09-09T05:22:05;7.00;;;2.60;;
22034;SDS011;11181;51.002;4.356;2022-09-09T05:24:32;5.20;;;1.80;;
22034;SDS011;11181;51.002;4.356;2022-09-09T05:26:59;11.27;;;1.90;;
22034;SDS011;11181;51.002;4.356;2022-09-09T05:29:27;7.67;;;1.93;;
22034;SDS011;11181;51.002;4.356;2022-09-09T05:31:54;4.57;;;2.03;;
22034;SDS011;11181;51.002;4.356;2022-09-09T05:34:23;5.27;;;2.17;;
22034;SDS011;11181;51.002;4.356;2022-09-09T05:36:50;4.03;;;2.00;;
22034;SDS011;11181;51.002;4.356;2022-09-09T05:39:17;5.83;;;1.70;;
22034;SDS011;11181;51.002;4.356;2022-09-09T05:41:44;7.80;;;2.63;;
22034;SDS011;11181;51.002;4.356;2022-09-09T05:44:11;7.00;;;3.33;;
22034;SDS011;11181;51.002;4.356;2022-09-09T05:46:38;10.60;;;2.40;;
22034;SDS011;11181;51.002;4.356;2022-09-09T05:49:05;7.43;;;1.83;;
22034;SDS011;11181;51.002;4.356;2022-09-09T05:51:35;11.30;;;3.00;;
22034;SDS011;11181;51.002;4.356;2022-09-09T05:54:02;7.57;;;2.13;;
22034;SDS011;11181;51.002;4.356;2022-09-09T05:56:30;5.57;;;2.20;;
22034;SDS011;11181;51.002;4.356;2022-09-09T05:58:57;7.70;;;2.57;;
22034;SDS011;11181;51.002;4.356;2022-09-09T06:01:26;5.53;;;1.93;;
22034;SDS011;11181;51.002;4.356;2022-09-09T06:03:55;6.60;;;2.53;;
22034;SDS011;11181;51.002;4.356;2022-09-09T06:06:23;10.87;;;2.30;;
22034;SDS011;11181;51.002;4.356;2022-09-09T06:08:53;11.93;;;2.13;;
22034;SDS011;11181;51.002;4.356;2022-09-09T06:11:22;9.37;;;2.17;;
22034;SDS011;11181;51.002;4.356;2022-09-09T06:13:51;7.00;;;2.50;;
22034;SDS011;11181;51.002;4.356;2022-09-09T06:16:20;6.63;;;1.80;;
22034;SDS011;11181;51.002;4.356;2022-09-09T06:18:48;8.03;;;2.07;;
22034;SDS011;11181;51.002;4.356;2022-09-09T06:21:17;5.90;;;1.83;;
22034;SDS011;11181;51.002;4.356;2022-09-09T06:23:45;3.43;;;1.73;;
22034;SDS011;11181;51.002;4.356;2022-09-09T06:26:14;9.67;;;1.90;;
22034;SDS011;11181;51.002;4.356;2022-09-09T06:28:43;11.23;;;2.33;;
22034;SDS011;11181;51.002;4.356;2022-09-09T06:31:14;9.63;;;2.17;;
22034;SDS011;11181;51.002;4.356;2022-09-09T06:33:42;8.63;;;2.33;;
22034;SDS011;11181;51.002;4.356;2022-09-09T06:36:11;10.87;;;2.00;;
22034;SDS011;11181;51.002;4.356;2022-09-09T06:38:40;12.97;;;2.80;;
22034;SDS011;11181;51.002;4.356;2022-09-09T06:41:07;9.70;;;2.40;;
22034;SDS011;11181;51.002;4.356;2022-09-09T06:43:36;4.53;;;2.03;;
22034;SDS011;11181;51.002;4.356;2022-09-09T06:46:04;10.13;;;1.70;;
22034;SDS011;11181;51.002;4.356;2022-09-09T06:48:33;10.30;;;2.90;;
22034;SDS011;11181;51.002;4.356;2022-09-09T06:51:02;6.70;;;1.97;;
22034;SDS011;11181;51.002;4.356;2022-09-09T06:53:30;9.07;;;2.30;;
22034;SDS011;11181;51.002;4.356;2022-09-09T06:55:58;7.03;;;1.80;;
22034;SDS011;11181;51.002;4.356;2022-09-09T06:58:26;11.63;;;2.10;;
22034;SDS011;11181;51.002;4.356;2022-09-09T07:01:00;4.87;;;1.37;;
22034;SDS011;11181;51.002;4.356;2022-09-09T07:03:28;4.93;;;1.53;;
22034;SDS011;11181;51.002;4.356;2022-09-09T07:05:56;8.17;;;1.50;;
22034;SDS011;11181;51.002;4.356;2022-09-09T07:08:23;5.27;;;1.87;;
22034;SDS011;11181;51.002;4.356;2022-09-09T07:10:51;7.50;;;2.23;;
22034;SDS011;11181;51.002;4.356;2022-09-09T07:13:19;5.00;;;1.83;;
22034;SDS011;11181;51.002;4.356;2022-09-09T07:15:49;6.97;;;1.63;;
22034;SDS011;11181;51.002;4.356;2022-09-09T07:18:18;7.33;;;1.50;;
22034;SDS011;11181;51.002;4.356;2022-09-09T07:20:52;8.60;;;1.70;;
22034;SDS011;11181;51.002;4.356;2022-09-09T07:23:19;6.33;;;1.60;;
22034;SDS011;11181;51.002;4.356;2022-09-09T07:25:46;8.60;;;2.03;;
22034;SDS011;11181;51.002;4.356;2022-09-09T07:28:13;7.87;;;2.00;;
22034;SDS011;11181;51.002;4.356;2022-09-09T07:30:40;7.77;;;2.13;;
22034;SDS011;11181;51.002;4.356;2022-09-09T07:33:07;5.20;;;1.60;;
22034;SDS011;11181;51.002;4.356;2022-09-09T07:35:36;8.47;;;1.70;;
22034;SDS011;11181;51.002;4.356;2022-09-09T07:38:03;3.87;;;1.83;;
22034;SDS011;11181;51.002;4.356;2022-09-09T07:40:31;8.37;;;1.50;;
22034;SDS011;11181;51.002;4.356;2022-09-09T07:42:59;11.07;;;1.93;;
22034;SDS011;11181;51.002;4.356;2022-09-09T07:45:26;3.47;;;1.93;;
22034;SDS011;11181;51.002;4.356;2022-09-09T07:47:54;5.27;;;1.63;;
22034;SDS011;11181;51.002;4.356;2022-09-09T07:50:22;7.40;;;1.77;;
22034;SDS011;11181;51.002;4.356;2022-09-09T07:52:50;5.57;;;1.30;;
22034;SDS011;11181;51.002;4.356;2022-09-09T07:55:18;6.93;;;1.77;;
22034;SDS011;11181;51.002;4.356;2022-09-09T07:57:45;6.07;;;1.63;;
22034;SDS011;11181;51.002;4.356;2022-09-09T08:00:13;6.03;;;1.70;;
22034;SDS011;11181;51.002;4.356;2022-09-09T08:02:40;10.87;;;1.90;;
22034;SDS011;11181;51.002;4.356;2022-09-09T08:05:07;8.00;;;2.33;;
22034;SDS011;11181;51.002;4.356;2022-09-09T08:07:34;7.17;;;1.90;;
22034;SDS011;11181;51.002;4.356;2022-09-09T08:10:03;12.47;;;2.17;;
22034;SDS011;11181;51.002;4.356;2022-09-09T08:12:31;7.20;;;1.60;;
22034;SDS011;11181;51.002;4.356;2022-09-09T08:14:58;4.83;;;1.73;;
22034;SDS011;11181;51.002;4.356;2022-09-09T08:17:25;6.43;;;1.60;;
22034;SDS011;11181;51.002;4.356;2022-09-09T08:19:52;5.33;;;1.37;;
22034;SDS011;11181;51.002;4.356;2022-09-09T08:22:19;5.67;;;1.67;;
22034;SDS011;11181;51.002;4.356;2022-09-09T08:24:47;8.57;;;2.40;;
22034;SDS011;11181;51.002;4.356;2022-09-09T08:27:15;8.60;;;2.07;;
22034;SDS011;11181;51.002;4.356;2022-09-09T08:29:42;6.13;;;1.67;;
22034;SDS011;11181;51.002;4.356;2022-09-09T08:32:09;11.20;;;2.37;;
22034;SDS011;11181;51.002;4.356;2022-09-09T08:34:36;6.13;;;1.67;;
22034;SDS011;11181;51.002;4.356;2022-09-09T08:37:03;5.90;;;2.10;;
22034;SDS011;11181;51.002;4.356;2022-09-09T08:39:30;3.50;;;1.47;;
22034;SDS011;11181;51.002;4.356;2022-09-09T08:44:54;3.43;;;1.40;;
22034;SDS011;11181;51.002;4.356;2022-09-09T08:47:42;6.70;;;1.60;;
22034;SDS011;11181;51.002;4.356;2022-09-09T08:50:19;5.37;;;2.17;;
22034;SDS011;11181;51.002;4.356;2022-09-09T08:52:51;6.27;;;2.63;;
22034;SDS011;11181;51.002;4.356;2022-09-09T08:55:28;6.73;;;2.43;;
22034;SDS011;11181;51.002;4.356;2022-09-09T08:58:06;4.77;;;2.03;;
22034;SDS011;11181;51.002;4.356;2022-09-09T09:00:41;3.33;;;1.30;;
22034;SDS011;11181;51.002;4.356;2022-09-09T09:03:19;4.20;;;1.77;;
22034;SDS011;11181;51.002;4.356;2022-09-09T09:05:55;8.53;;;2.60;;
22034;SDS011;11181;51.002;4.356;2022-09-09T09:08:29;9.37;;;2.13;;
22034;SDS011;11181;51.002;4.356;2022-09-09T09:11:03;5.60;;;1.53;;
22034;SDS011;11181;51.002;4.356;2022-09-09T09:13:33;6.37;;;1.83;;
22034;SDS011;11181;51.002;4.356;2022-09-09T09:16:07;9.27;;;1.90;;
22034;SDS011;11181;51.002;4.356;2022-09-09T09:18:41;4.67;;;3.03;;
22034;SDS011;11181;51.002;4.356;2022-09-09T09:21:10;2.87;;;1.73;;
22034;SDS011;11181;51.002;4.356;2022-09-09T09:23:42;6.73;;;1.63;;
22034;SDS011;11181;51.002;4.356;2022-09-09T09:26:16;7.87;;;1.57;;
22034;SDS011;11181;51.002;4.356;2022-09-09T09:28:45;10.07;;;2.70;;
22034;SDS011;11181;51.002;4.356;2022-09-09T09:31:12;7.67;;;2.53;;
22034;SDS011;11181;51.002;4.356;2022-09-09T09:33:43;6.73;;;2.80;;
22034;SDS011;11181;51.002;4.356;2022-09-09T09:36:14;9.53;;;1.87;;
22034;SDS011;11181;51.002;4.356;2022-09-09T09:38:51;5.30;;;1.67;;
22034;SDS011;11181;51.002;4.356;2022-09-09T09:41:33;6.67;;;1.80;;
22034;SDS011;11181;51.002;4.356;2022-09-09T09:44:03;7.70;;;2.70;;
22034;SDS011;11181;51.002;4.356;2022-09-09T09:46:32;6.63;;;1.43;;
22034;SDS011;11181;51.002;4.356;2022-09-09T09:48:59;5.57;;;1.77;;
22034;SDS011;11181;51.002;4.356;2022-09-09T09:51:28;8.50;;;1.90;;
22034;SDS011;11181;51.002;4.356;2022-09-09T09:54:06;6.63;;;1.53;;
22034;SDS011;11181;51.002;4.356;2022-09-09T09:56:40;4.50;;;1.30;;
22034;SDS011;11181;51.002;4.356;2022-09-09T09:59:20;3.77;;;1.40;;
22034;SDS011;11181;51.002;4.356;2022-09-09T10:01:49;2.73;;;1.40;;
22034;SDS011;11181;51.002;4.356;2022-09-09T10:04:16;3.20;;;1.47;;
22034;SDS011;11181;51.002;4.356;2022-09-09T10:06:45;4.67;;;1.57;;
22034;SDS011;11181;51.002;4.356;2022-09-09T10:09:20;5.70;;;1.70;;
22034;SDS011;11181;51.002;4.356;2022-09-09T10:11:51;3.80;;;1.30;;
22034;SDS011;11181;51.002;4.356;2022-09-09T10:14:27;6.30;;;1.97;;
22034;SDS011;11181;51.002;4.356;2022-09-09T10:17:04;3.93;;;1.63;;
22034;SDS011;11181;51.002;4.356;2022-09-09T10:19:42;4.30;;;1.33;;
22034;SDS011;11181;51.002;4.356;2022-09-09T10:22:24;3.03;;;1.07;;
22034;SDS011;11181;51.002;4.356;2022-09-09T10:25:05;7.37;;;1.57;;
22034;SDS011;11181;51.002;4.356;2022-09-09T10:27:43;7.37;;;1.47;;
22034;SDS011;11181;51.002;4.356;2022-09-09T10:30:26;3.00;;;1.47;;
22034;SDS011;11181;51.002;4.356;2022-09-09T10:33:01;2.97;;;1.23;;
22034;SDS011;11181;51.002;4.356;2022-09-09T10:35:35;6.37;;;2.17;;
22034;SDS011;11181;51.002;4.356;2022-09-09T10:38:15;2.90;;;1.37;;
22034;SDS011;11181;51.002;4.356;2022-09-09T10:40:46;3.20;;;1.30;;
22034;SDS011;11181;51.002;4.356;2022-09-09T10:43:44;5.87;;;1.80;;
22034;SDS011;11181;51.002;4.356;2022-09-09T10:46:23;5.93;;;1.20;;
22034;SDS011;11181;51.002;4.356;2022-09-09T10:49:03;4.47;;;1.20;;
22034;SDS011;11181;51.002;4.356;2022-09-09T10:51:43;5.60;;;1.50;;
22034;SDS011;11181;51.002;4.356;2022-09-09T10:54:23;3.37;;;1.20;;
22034;SDS011;11181;51.002;4.356;2022-09-09T10:56:58;4.20;;;1.17;;
22034;SDS011;11181;51.002;4.356;2022-09-09T10:59:31;3.53;;;1.40;;
22034;SDS011;11181;51.002;4.356;2022-09-09T11:02:05;5.80;;;1.00;;
22034;SDS011;11181;51.002;4.356;2022-09-09T11:04:45;6.03;;;1.87;;
22034;SDS011;11181;51.002;4.356;2022-09-09T11:07:21;4.20;;;1.57;;
22034;SDS011;11181;51.002;4.356;2022-09-09T11:09:54;2.90;;;1.10;;
22034;SDS011;11181;51.002;4.356;2022-09-09T11:12:25;1.73;;;1.17;;
22034;SDS011;11181;51.002;4.356;2022-09-09T11:14:55;4.30;;;1.40;;
22034;SDS011;11181;51.002;4.356;2022-09-09T11:17:33;2.93;;;1.20;;
22034;SDS011;11181;51.002;4.356;2022-09-09T11:20:10;3.80;;;1.07;;
22034;SDS011;11181;51.002;4.356;2022-09-09T11:22:39;5.13;;;1.07;;
22034;SDS011;11181;51.002;4.356;2022-09-09T11:25:14;3.57;;;1.00;;
22034;SDS011;11181;51.002;4.356;2022-09-09T11:27:45;6.67;;;1.80;;
22034;SDS011;11181;51.002;4.356;2022-09-09T11:30:26;3.87;;;1.53;;
22034;SDS011;11181;51.002;4.356;2022-09-09T11:33:12;9.27;;;1.60;;
22034;SDS011;11181;51.002;4.356;2022-09-09T11:36:06;1.70;;;1.00;;
22034;SDS011;11181;51.002;4.356;2022-09-09T11:38:52;2.63;;;1.10;;
22034;SDS011;11181;51.002;4.356;2022-09-09T11:41:32;3.13;;;0.87;;
22034;SDS011;11181;51.002;4.356;2022-09-09T11:44:08;2.67;;;1.00;;
22034;SDS011;11181;51.002;4.356;2022-09-09T11:46:37;2.60;;;1.63;;
22034;SDS011;11181;51.002;4.356;2022-09-09T11:49:21;4.33;;;1.10;;
22034;SDS011;11181;51.002;4.356;2022-09-09T11:51:53;5.03;;;1.00;;
22034;SDS011;11181;51.002;4.356;2022-09-09T11:54:29;5.83;;;1.73;;
22034;SDS011;11181;51.002;4.356;2022-09-09T11:56:57;3.47;;;1.30;;
22034;SDS011;11181;51.002;4.356;2022-09-09T11:59:25;2.47;;;1.00;;
22034;SDS011;11181;51.002;4.356;2022-09-09T12:01:55;2.43;;;1.00;;
22034;SDS011;11181;51.002;4.356;2022-09-09T12:04:29;4.47;;;1.17;;
22034;SDS011;11181;51.002;4.356;2022-09-09T12:07:04;2.70;;;1.00;;
22034;SDS011;11181;51.002;4.356;2022-09-09T12:09:48;4.03;;;1.43;;
22034;SDS011;11181;51.002;4.356;2022-09-09T12:12:22;3.00;;;1.23;;
22034;SDS011;11181;51.002;4.356;2022-09-09T12:14:55;4.43;;;1.27;;
22034;SDS011;11181;51.002;4.356;2022-09-09T12:17:27;2.57;;;1.00;;
22034;SDS011;11181;51.002;4.356;2022-09-09T12:20:08;2.90;;;1.10;;
22034;SDS011;11181;51.002;4.356;2022-09-09T12:22:57;2.63;;;1.07;;
22034;SDS011;11181;51.002;4.356;2022-09-09T12:25:34;4.63;;;1.40;;
22034;SDS011;11181;51.002;4.356;2022-09-09T12:28:15;3.40;;;0.87;;
22034;SDS011;11181;51.002;4.356;2022-09-09T12:30:46;1.90;;;0.90;;
22034;SDS011;11181;51.002;4.356;2022-09-09T12:33:19;10.93;;;1.40;;
22034;SDS011;11181;51.002;4.356;2022-09-09T12:35:50;4.10;;;1.10;;
22034;SDS011;11181;51.002;4.356;2022-09-09T12:38:22;2.23;;;1.03;;
22034;SDS011;11181;51.002;4.356;2022-09-09T12:40:58;2.40;;;0.90;;
22034;SDS011;11181;51.002;4.356;2022-09-09T12:43:26;2.03;;;0.70;;
22034;SDS011;11181;51.002;4.356;2022-09-09T12:45:54;4.50;;;1.20;;
22034;SDS011;11181;51.002;4.356;2022-09-09T12:48:28;4.83;;;1.20;;
22034;SDS011;11181;51.002;4.356;2022-09-09T12:50:59;2.87;;;1.10;;
22034;SDS011;11181;51.002;4.356;2022-09-09T12:53:28;2.63;;;1.00;;
22034;SDS011;11181;51.002;4.356;2022-09-09T12:55:59;2.20;;;0.60;;
22034;SDS011;11181;51.002;4.356;2022-09-09T12:58:30;6.90;;;1.30;;
22034;SDS011;11181;51.002;4.356;2022-09-09T13:00:59;1.87;;;1.00;;
22034;SDS011;11181;51.002;4.356;2022-09-09T13:03:29;2.83;;;0.93;;
22034;SDS011;11181;51.002;4.356;2022-09-09T13:05:57;4.00;;;1.03;;
22034;SDS011;11181;51.002;4.356;2022-09-09T13:08:37;2.07;;;1.03;;
22034;SDS011;11181;51.002;4.356;2022-09-09T13:11:06;4.23;;;1.20;;
22034;SDS011;11181;51.002;4.356;2022-09-09T13:13:39;2.33;;;1.00;;
22034;SDS011;11181;51.002;4.356;2022-09-09T13:16:17;1.67;;;0.90;;
22034;SDS011;11181;51.002;4.356;2022-09-09T13:18:46;2.37;;;1.13;;
22034;SDS011;11181;51.002;4.356;2022-09-09T13:21:15;1.93;;;1.07;;
22034;SDS011;11181;51.002;4.356;2022-09-09T13:23:42;3.20;;;0.80;;
22034;SDS011;11181;51.002;4.356;2022-09-09T13:26:22;1.80;;;0.90;;
22034;SDS011;11181;51.002;4.356;2022-09-09T13:28:50;2.57;;;1.00;;
22034;SDS011;11181;51.002;4.356;2022-09-09T13:31:19;6.80;;;1.10;;
22034;SDS011;11181;51.002;4.356;2022-09-09T13:33:48;2.93;;;0.90;;
22034;SDS011;11181;51.002;4.356;2022-09-09T13:36:16;2.07;;;0.93;;
22034;SDS011;11181;51.002;4.356;2022-09-09T13:38:56;3.63;;;1.10;;
22034;SDS011;11181;51.002;4.356;2022-09-09T13:41:25;4.27;;;0.90;;
22034;SDS011;11181;51.002;4.356;2022-09-09T13:43:55;2.57;;;1.23;;
22034;SDS011;11181;51.002;4.356;2022-09-09T13:46:24;1.47;;;0.93;;
22034;SDS011;11181;51.002;4.356;2022-09-09T13:48:55;1.10;;;0.70;;
22034;SDS011;11181;51.002;4.356;2022-09-09T13:51:28;1.40;;;0.80;;
22034;SDS011;11181;51.002;4.356;2022-09-09T13:54:00;2.17;;;0.80;;
22034;SDS011;11181;51.002;4.356;2022-09-09T13:56:27;4.80;;;1.47;;
22034;SDS011;11181;51.002;4.356;2022-09-09T13:58:54;2.30;;;0.90;;
22034;SDS011;11181;51.002;4.356;2022-09-09T14:01:22;2.40;;;1.10;;
22034;SDS011;11181;51.002;4.356;2022-09-09T14:03:49;2.37;;;1.10;;
22034;SDS011;11181;51.002;4.356;2022-09-09T14:06:18;2.03;;;0.90;;
22034;SDS011;11181;51.002;4.356;2022-09-09T14:08:48;2.63;;;1.00;;
22034;SDS011;11181;51.002;4.356;2022-09-09T14:11:15;2.23;;;0.70;;
22034;SDS011;11181;51.002;4.356;2022-09-09T14:13:43;1.17;;;0.80;;
22034;SDS011;11181;51.002;4.356;2022-09-09T14:16:10;2.23;;;1.00;;
22034;SDS011;11181;51.002;4.356;2022-09-09T14:18:37;2.87;;;0.83;;
22034;SDS011;11181;51.002;4.356;2022-09-09T14:21:04;1.80;;;1.00;;
22034;SDS011;11181;51.002;4.356;2022-09-09T14:23:31;1.17;;;0.70;;
22034;SDS011;11181;51.002;4.356;2022-09-09T14:25:59;2.83;;;1.07;;
22034;SDS011;11181;51.002;4.356;2022-09-09T14:28:26;2.47;;;0.60;;
22034;SDS011;11181;51.002;4.356;2022-09-09T14:30:53;4.07;;;1.43;;
22034;SDS011;11181;51.002;4.356;2022-09-09T14:33:21;1.57;;;0.90;;
22034;SDS011;11181;51.002;4.356;2022-09-09T14:35:48;3.00;;;1.00;;
22034;SDS011;11181;51.002;4.356;2022-09-09T14:38:22;2.70;;;1.17;;
22034;SDS011;11181;51.002;4.356;2022-09-09T14:40:49;1.20;;;1.07;;
22034;SDS011;11181;51.002;4.356;2022-09-09T14:43:17;3.73;;;1.10;;
22034;SDS011;11181;51.002;4.356;2022-09-09T14:45:45;4.83;;;1.23;;
22034;SDS011;11181;51.002;4.356;2022-09-09T14:48:13;1.43;;;1.00;;
22034;SDS011;11181;51.002;4.356;2022-09-09T14:50:40;2.60;;;1.20;;
22034;SDS011;11181;51.002;4.356;2022-09-09T14:53:07;2.40;;;1.37;;
22034;SDS011;11181;51.002;4.356;2022-09-09T14:55:35;3.87;;;1.17;;
22034;SDS011;11181;51.002;4.356;2022-09-09T14:58:03;3.60;;;1.30;;
22034;SDS011;11181;51.002;4.356;2022-09-09T15:00:31;2.57;;;1.30;;
22034;SDS011;11181;51.002;4.356;2022-09-09T15:02:59;4.43;;;1.63;;
22034;SDS011;11181;51.002;4.356;2022-09-09T15:05:25;7.00;;;1.73;;
22034;SDS011;11181;51.002;4.356;2022-09-09T15:07:53;1.43;;;1.17;;
22034;SDS011;11181;51.002;4.356;2022-09-09T15:10:20;3.13;;;0.90;;
22034;SDS011;11181;51.002;4.356;2022-09-09T15:12:47;2.03;;;1.17;;
22034;SDS011;11181;51.002;4.356;2022-09-09T15:15:14;1.20;;;1.10;;
22034;SDS011;11181;51.002;4.356;2022-09-09T15:17:43;6.17;;;1.10;;